sensor_id;sensor_type;location;lat;lon;timestamp;P1;durP1;ratioP1;P2;durP2;ratioP2
61756;SDS011;57225;61.460;24.060;2023-12-04T00:01:09;10.70;;;3.83;;
61756;SDS011;57225;61.460;24.060;2023-12-04T00:03:53;8.63;;;4.10;;
61756;SDS011;57225;61.460;24.060;2023-12-04T00:06:38;8.00;;;4.18;;
61756;SDS011;57225;61.460;24.060;2023-12-04T00:09:22;9.35;;;3.60;;
61756;SDS011;57225;61.460;24.060;2023-12-04T00:12:08;9.45;;;3.75;;
61756;SDS011;57225;61.460;24.060;2023-12-04T00:14:53;10.13;;;4.03;;
61756;SDS011;57225;61.460;24.060;2023-12-04T00:17:37;9.27;;;4.18;;
61756;SDS011;57225;61.460;24.060;2023-12-04T00:20:23;8.32;;;3.67;;
61756;SDS011;57225;61.460;24.060;2023-12-04T00:23:08;8.75;;;3.92;;
61756;SDS011;57225;61.460;24.060;2023-12-04T00:25:53;7.28;;;3.30;;
61756;SDS011;57225;61.460;24.060;2023-12-04T00:28:38;9.45;;;3.72;;
61756;SDS011;57225;61.460;24.060;2023-12-04T00:31:23;6.45;;;3.20;;
61756;SDS011;57225;61.460;24.060;2023-12-04T00:34:07;8.85;;;3.63;;
61756;SDS011;57225;61.460;24.060;2023-12-04T00:36:52;8.00;;;3.47;;
61756;SDS011;57225;61.460;24.060;2023-12-04T00:39:36;9.95;;;4.25;;
61756;SDS011;57225;61.460;24.060;2023-12-04T00:42:21;10.18;;;3.47;;
61756;SDS011;57225;61.460;24.060;2023-12-04T00:45:06;8.32;;;3.55;;
61756;SDS011;57225;61.460;24.060;2023-12-04T00:47:51;9.18;;;3.47;;
61756;SDS011;57225;61.460;24.060;2023-12-04T00:50:35;8.95;;;3.85;;
61756;SDS011;57225;61.460;24.060;2023-12-04T00:53:20;9.68;;;3.85;;
61756;SDS011;57225;61.460;24.060;2023-12-04T00:56:05;9.95;;;3.78;;
61756;SDS011;57225;61.460;24.060;2023-12-04T00:58:50;9.90;;;3.60;;
61756;SDS011;57225;61.460;24.060;2023-12-04T01:01:38;8.73;;;3.42;;
61756;SDS011;57225;61.460;24.060;2023-12-04T01:04:22;8.75;;;3.80;;
61756;SDS011;57225;61.460;24.060;2023-12-04T01:07:07;8.85;;;3.50;;
61756;SDS011;57225;61.460;24.060;2023-12-04T01:09:51;9.55;;;3.25;;
61756;SDS011;57225;61.460;24.060;2023-12-04T01:12:35;8.60;;;3.75;;
61756;SDS011;57225;61.460;24.060;2023-12-04T01:15:20;9.13;;;3.55;;
61756;SDS011;57225;61.460;24.060;2023-12-04T01:18:04;8.93;;;3.55;;
61756;SDS011;57225;61.460;24.060;2023-12-04T01:20:49;9.25;;;3.88;;
61756;SDS011;57225;61.460;24.060;2023-12-04T01:23:33;5.85;;;2.97;;
61756;SDS011;57225;61.460;24.060;2023-12-04T01:26:18;10.00;;;3.78;;
61756;SDS011;57225;61.460;24.060;2023-12-04T01:29:03;9.50;;;3.78;;
61756;SDS011;57225;61.460;24.060;2023-12-04T01:31:47;10.57;;;3.90;;
61756;SDS011;57225;61.460;24.060;2023-12-04T01:34:31;11.23;;;3.75;;
61756;SDS011;57225;61.460;24.060;2023-12-04T01:37:16;6.95;;;3.20;;
61756;SDS011;57225;61.460;24.060;2023-12-04T01:40:01;8.90;;;3.67;;
61756;SDS011;57225;61.460;24.060;2023-12-04T01:42:45;10.38;;;3.60;;
61756;SDS011;57225;61.460;24.060;2023-12-04T01:45:30;7.70;;;3.42;;
61756;SDS011;57225;61.460;24.060;2023-12-04T01:48:14;10.30;;;3.50;;
61756;SDS011;57225;61.460;24.060;2023-12-04T01:51:00;9.70;;;3.55;;
61756;SDS011;57225;61.460;24.060;2023-12-04T01:53:49;9.40;;;3.75;;
61756;SDS011;57225;61.460;24.060;2023-12-04T01:56:34;9.65;;;3.55;;
61756;SDS011;57225;61.460;24.060;2023-12-04T01:59:20;10.70;;;3.72;;
61756;SDS011;57225;61.460;24.060;2023-12-04T02:02:05;9.82;;;3.75;;
61756;SDS011;57225;61.460;24.060;2023-12-04T02:04:49;8.73;;;3.38;;
61756;SDS011;57225;61.460;24.060;2023-12-04T02:07:34;9.05;;;3.55;;
61756;SDS011;57225;61.460;24.060;2023-12-04T02:10:22;9.60;;;3.60;;
61756;SDS011;57225;61.460;24.060;2023-12-04T02:13:06;9.40;;;3.83;;
61756;SDS011;57225;61.460;24.060;2023-12-04T02:15:51;6.78;;;3.28;;
61756;SDS011;57225;61.460;24.060;2023-12-04T02:18:38;6.85;;;3.08;;
61756;SDS011;57225;61.460;24.060;2023-12-04T02:21:23;8.55;;;3.13;;
61756;SDS011;57225;61.460;24.060;2023-12-04T02:24:07;10.82;;;3.10;;
61756;SDS011;57225;61.460;24.060;2023-12-04T02:26:52;8.73;;;3.08;;
61756;SDS011;57225;61.460;24.060;2023-12-04T02:29:46;9.68;;;3.35;;
61756;SDS011;57225;61.460;24.060;2023-12-04T02:32:35;10.00;;;3.85;;
61756;SDS011;57225;61.460;24.060;2023-12-04T02:35:27;9.95;;;3.85;;
61756;SDS011;57225;61.460;24.060;2023-12-04T02:38:16;9.77;;;3.53;;
61756;SDS011;57225;61.460;24.060;2023-12-04T02:41:01;10.32;;;3.10;;
61756;SDS011;57225;61.460;24.060;2023-12-04T02:43:46;9.02;;;3.22;;
61756;SDS011;57225;61.460;24.060;2023-12-04T02:46:31;6.75;;;3.25;;
61756;SDS011;57225;61.460;24.060;2023-12-04T02:49:15;8.60;;;3.88;;
61756;SDS011;57225;61.460;24.060;2023-12-04T02:51:59;8.85;;;3.25;;
61756;SDS011;57225;61.460;24.060;2023-12-04T02:54:44;6.47;;;3.10;;
61756;SDS011;57225;61.460;24.060;2023-12-04T02:57:28;10.85;;;3.45;;
61756;SDS011;57225;61.460;24.060;2023-12-04T03:00:13;7.85;;;3.20;;
61756;SDS011;57225;61.460;24.060;2023-12-04T03:02:57;8.57;;;3.47;;
61756;SDS011;57225;61.460;24.060;2023-12-04T03:05:42;10.38;;;3.45;;
61756;SDS011;57225;61.460;24.060;2023-12-04T03:08:26;9.20;;;3.15;;
61756;SDS011;57225;61.460;24.060;2023-12-04T03:11:11;6.60;;;2.83;;
61756;SDS011;57225;61.460;24.060;2023-12-04T03:13:55;6.97;;;3.05;;
61756;SDS011;57225;61.460;24.060;2023-12-04T03:16:40;8.48;;;3.20;;
61756;SDS011;57225;61.460;24.060;2023-12-04T03:19:25;7.80;;;3.28;;
61756;SDS011;57225;61.460;24.060;2023-12-04T03:22:09;7.88;;;3.42;;
61756;SDS011;57225;61.460;24.060;2023-12-04T03:24:55;6.07;;;2.58;;
61756;SDS011;57225;61.460;24.060;2023-12-04T03:27:40;6.03;;;2.83;;
61756;SDS011;57225;61.460;24.060;2023-12-04T03:30:24;7.07;;;2.70;;
61756;SDS011;57225;61.460;24.060;2023-12-04T03:33:09;7.60;;;3.10;;
61756;SDS011;57225;61.460;24.060;2023-12-04T03:35:53;7.50;;;3.25;;
61756;SDS011;57225;61.460;24.060;2023-12-04T03:38:38;8.07;;;3.13;;
61756;SDS011;57225;61.460;24.060;2023-12-04T03:41:22;8.02;;;3.00;;
61756;SDS011;57225;61.460;24.060;2023-12-04T03:47:19;6.38;;;2.78;;
61756;SDS011;57225;61.460;24.060;2023-12-04T03:50:04;9.25;;;3.40;;
61756;SDS011;57225;61.460;24.060;2023-12-04T03:52:49;9.65;;;3.50;;
61756;SDS011;57225;61.460;24.060;2023-12-04T03:55:33;10.15;;;4.00;;
61756;SDS011;57225;61.460;24.060;2023-12-04T03:58:18;9.27;;;3.67;;
61756;SDS011;57225;61.460;24.060;2023-12-04T04:01:02;8.93;;;3.45;;
61756;SDS011;57225;61.460;24.060;2023-12-04T04:03:47;10.55;;;4.03;;
61756;SDS011;57225;61.460;24.060;2023-12-04T04:06:32;9.23;;;3.55;;
61756;SDS011;57225;61.460;24.060;2023-12-04T04:09:16;12.02;;;4.20;;
61756;SDS011;57225;61.460;24.060;2023-12-04T04:12:00;15.82;;;4.18;;
61756;SDS011;57225;61.460;24.060;2023-12-04T04:14:45;11.00;;;3.35;;
61756;SDS011;57225;61.460;24.060;2023-12-04T04:17:29;10.05;;;4.03;;
61756;SDS011;57225;61.460;24.060;2023-12-04T04:20:14;12.75;;;3.75;;
61756;SDS011;57225;61.460;24.060;2023-12-04T04:22:58;11.00;;;3.70;;
61756;SDS011;57225;61.460;24.060;2023-12-04T04:25:42;11.18;;;3.72;;
61756;SDS011;57225;61.460;24.060;2023-12-04T04:28:27;6.55;;;3.17;;
61756;SDS011;57225;61.460;24.060;2023-12-04T04:31:11;8.65;;;3.30;;
61756;SDS011;57225;61.460;24.060;2023-12-04T04:33:56;6.25;;;3.03;;
61756;SDS011;57225;61.460;24.060;2023-12-04T04:36:40;7.63;;;3.25;;
61756;SDS011;57225;61.460;24.060;2023-12-04T04:39:25;8.02;;;2.78;;
61756;SDS011;57225;61.460;24.060;2023-12-04T04:42:09;9.02;;;3.45;;
61756;SDS011;57225;61.460;24.060;2023-12-04T04:44:53;8.35;;;2.75;;
61756;SDS011;57225;61.460;24.060;2023-12-04T04:47:38;7.50;;;3.10;;
61756;SDS011;57225;61.460;24.060;2023-12-04T04:50:23;9.32;;;3.53;;
61756;SDS011;57225;61.460;24.060;2023-12-04T04:53:07;8.68;;;3.72;;
61756;SDS011;57225;61.460;24.060;2023-12-04T04:55:52;14.05;;;4.35;;
61756;SDS011;57225;61.460;24.060;2023-12-04T04:58:36;12.57;;;3.88;;
61756;SDS011;57225;61.460;24.060;2023-12-04T05:01:20;11.32;;;4.10;;
61756;SDS011;57225;61.460;24.060;2023-12-04T05:04:05;11.98;;;4.53;;
61756;SDS011;57225;61.460;24.060;2023-12-04T05:06:49;8.90;;;3.97;;
61756;SDS011;57225;61.460;24.060;2023-12-04T05:09:34;12.45;;;4.15;;
61756;SDS011;57225;61.460;24.060;2023-12-04T05:12:18;9.57;;;4.18;;
61756;SDS011;57225;61.460;24.060;2023-12-04T05:15:03;10.45;;;4.00;;
61756;SDS011;57225;61.460;24.060;2023-12-04T05:17:47;13.77;;;4.32;;
61756;SDS011;57225;61.460;24.060;2023-12-04T05:20:32;10.45;;;3.72;;
61756;SDS011;57225;61.460;24.060;2023-12-04T05:23:16;9.80;;;4.22;;
61756;SDS011;57225;61.460;24.060;2023-12-04T05:26:01;8.25;;;3.45;;
61756;SDS011;57225;61.460;24.060;2023-12-04T05:28:46;10.05;;;3.70;;
61756;SDS011;57225;61.460;24.060;2023-12-04T05:31:30;9.27;;;3.45;;
61756;SDS011;57225;61.460;24.060;2023-12-04T05:34:15;7.88;;;3.63;;
61756;SDS011;57225;61.460;24.060;2023-12-04T05:36:59;9.70;;;3.83;;
61756;SDS011;57225;61.460;24.060;2023-12-04T05:39:44;10.98;;;3.38;;
61756;SDS011;57225;61.460;24.060;2023-12-04T05:42:28;8.90;;;3.30;;
61756;SDS011;57225;61.460;24.060;2023-12-04T05:45:13;5.57;;;3.03;;
61756;SDS011;57225;61.460;24.060;2023-12-04T05:47:57;6.95;;;2.60;;
61756;SDS011;57225;61.460;24.060;2023-12-04T05:50:41;6.85;;;3.10;;
61756;SDS011;57225;61.460;24.060;2023-12-04T05:53:26;9.13;;;3.65;;
61756;SDS011;57225;61.460;24.060;2023-12-04T05:56:10;10.32;;;3.80;;
61756;SDS011;57225;61.460;24.060;2023-12-04T05:58:55;6.75;;;3.20;;
61756;SDS011;57225;61.460;24.060;2023-12-04T06:01:40;9.23;;;3.88;;
61756;SDS011;57225;61.460;24.060;2023-12-04T06:04:24;8.07;;;3.42;;
61756;SDS011;57225;61.460;24.060;2023-12-04T06:07:09;7.45;;;3.10;;
61756;SDS011;57225;61.460;24.060;2023-12-04T06:09:53;7.07;;;3.33;;
61756;SDS011;57225;61.460;24.060;2023-12-04T06:12:38;7.20;;;2.92;;
61756;SDS011;57225;61.460;24.060;2023-12-04T06:15:22;9.35;;;2.80;;
61756;SDS011;57225;61.460;24.060;2023-12-04T06:18:06;6.55;;;2.50;;
61756;SDS011;57225;61.460;24.060;2023-12-04T06:20:51;8.20;;;3.13;;
61756;SDS011;57225;61.460;24.060;2023-12-04T06:23:35;10.05;;;3.25;;
61756;SDS011;57225;61.460;24.060;2023-12-04T06:26:20;6.63;;;3.03;;
61756;SDS011;57225;61.460;24.060;2023-12-04T06:29:04;13.60;;;4.78;;
61756;SDS011;57225;61.460;24.060;2023-12-04T06:31:49;14.35;;;5.15;;
61756;SDS011;57225;61.460;24.060;2023-12-04T06:34:34;13.70;;;5.30;;
61756;SDS011;57225;61.460;24.060;2023-12-04T06:37:19;20.60;;;7.43;;
61756;SDS011;57225;61.460;24.060;2023-12-04T06:40:03;23.13;;;7.68;;
61756;SDS011;57225;61.460;24.060;2023-12-04T06:42:48;25.27;;;8.18;;
61756;SDS011;57225;61.460;24.060;2023-12-04T06:45:33;23.73;;;8.02;;
61756;SDS011;57225;61.460;24.060;2023-12-04T06:48:18;23.85;;;8.25;;
61756;SDS011;57225;61.460;24.060;2023-12-04T06:51:02;20.63;;;7.65;;
61756;SDS011;57225;61.460;24.060;2023-12-04T06:53:47;18.98;;;6.85;;
61756;SDS011;57225;61.460;24.060;2023-12-04T06:56:31;17.73;;;6.82;;
61756;SDS011;57225;61.460;24.060;2023-12-04T06:59:17;15.05;;;5.63;;
61756;SDS011;57225;61.460;24.060;2023-12-04T07:02:02;8.95;;;4.22;;
61756;SDS011;57225;61.460;24.060;2023-12-04T07:04:47;8.05;;;3.65;;
61756;SDS011;57225;61.460;24.060;2023-12-04T07:07:31;8.63;;;3.30;;
61756;SDS011;57225;61.460;24.060;2023-12-04T07:10:16;10.30;;;3.60;;
61756;SDS011;57225;61.460;24.060;2023-12-04T07:13:00;7.13;;;3.08;;
61756;SDS011;57225;61.460;24.060;2023-12-04T07:15:45;10.25;;;3.95;;
61756;SDS011;57225;61.460;24.060;2023-12-04T07:18:29;8.52;;;3.63;;
61756;SDS011;57225;61.460;24.060;2023-12-04T07:21:14;9.82;;;3.35;;
61756;SDS011;57225;61.460;24.060;2023-12-04T07:23:58;7.25;;;2.63;;
61756;SDS011;57225;61.460;24.060;2023-12-04T07:26:42;6.13;;;2.90;;
61756;SDS011;57225;61.460;24.060;2023-12-04T07:29:27;5.88;;;2.90;;
61756;SDS011;57225;61.460;24.060;2023-12-04T07:32:12;6.72;;;3.13;;
61756;SDS011;57225;61.460;24.060;2023-12-04T07:34:57;5.63;;;2.40;;
61756;SDS011;57225;61.460;24.060;2023-12-04T07:37:42;5.03;;;2.33;;
61756;SDS011;57225;61.460;24.060;2023-12-04T07:40:27;6.70;;;2.40;;
61756;SDS011;57225;61.460;24.060;2023-12-04T07:43:11;6.90;;;2.58;;
61756;SDS011;57225;61.460;24.060;2023-12-04T07:45:58;6.55;;;2.60;;
61756;SDS011;57225;61.460;24.060;2023-12-04T07:48:42;8.63;;;2.92;;
61756;SDS011;57225;61.460;24.060;2023-12-04T07:51:30;8.40;;;3.17;;
61756;SDS011;57225;61.460;24.060;2023-12-04T07:54:14;8.18;;;2.83;;
61756;SDS011;57225;61.460;24.060;2023-12-04T07:56:59;8.68;;;2.63;;
61756;SDS011;57225;61.460;24.060;2023-12-04T07:59:43;8.23;;;2.97;;
61756;SDS011;57225;61.460;24.060;2023-12-04T08:02:28;6.65;;;2.47;;
61756;SDS011;57225;61.460;24.060;2023-12-04T08:05:14;5.85;;;2.45;;
61756;SDS011;57225;61.460;24.060;2023-12-04T08:07:58;5.57;;;2.47;;
61756;SDS011;57225;61.460;24.060;2023-12-04T08:10:43;5.70;;;2.63;;
61756;SDS011;57225;61.460;24.060;2023-12-04T08:13:28;7.25;;;2.95;;
61756;SDS011;57225;61.460;24.060;2023-12-04T08:16:13;6.03;;;2.92;;
61756;SDS011;57225;61.460;24.060;2023-12-04T08:19:01;6.65;;;2.97;;
61756;SDS011;57225;61.460;24.060;2023-12-04T08:21:45;8.10;;;3.22;;
61756;SDS011;57225;61.460;24.060;2023-12-04T08:24:30;7.13;;;2.80;;
61756;SDS011;57225;61.460;24.060;2023-12-04T08:27:15;5.03;;;2.42;;
61756;SDS011;57225;61.460;24.060;2023-12-04T08:29:59;7.00;;;2.92;;
61756;SDS011;57225;61.460;24.060;2023-12-04T08:32:44;7.25;;;2.90;;
61756;SDS011;57225;61.460;24.060;2023-12-04T08:35:28;6.47;;;2.63;;
61756;SDS011;57225;61.460;24.060;2023-12-04T08:38:13;5.90;;;2.58;;
61756;SDS011;57225;61.460;24.060;2023-12-04T08:40:57;7.90;;;2.95;;
61756;SDS011;57225;61.460;24.060;2023-12-04T08:43:41;5.03;;;2.35;;
61756;SDS011;57225;61.460;24.060;2023-12-04T08:46:26;5.70;;;2.47;;
61756;SDS011;57225;61.460;24.060;2023-12-04T08:49:10;4.88;;;2.30;;
61756;SDS011;57225;61.460;24.060;2023-12-04T08:51:55;6.35;;;2.67;;
61756;SDS011;57225;61.460;24.060;2023-12-04T08:54:39;6.00;;;2.40;;
61756;SDS011;57225;61.460;24.060;2023-12-04T08:57:27;5.70;;;2.75;;
61756;SDS011;57225;61.460;24.060;2023-12-04T09:00:11;5.90;;;2.38;;
61756;SDS011;57225;61.460;24.060;2023-12-04T09:02:56;3.97;;;2.15;;
61756;SDS011;57225;61.460;24.060;2023-12-04T09:05:41;5.25;;;2.35;;
61756;SDS011;57225;61.460;24.060;2023-12-04T09:08:25;5.13;;;2.10;;
61756;SDS011;57225;61.460;24.060;2023-12-04T09:11:11;4.22;;;2.05;;
61756;SDS011;57225;61.460;24.060;2023-12-04T09:13:55;6.28;;;2.25;;
61756;SDS011;57225;61.460;24.060;2023-12-04T09:16:40;9.68;;;3.75;;
61756;SDS011;57225;61.460;24.060;2023-12-04T09:19:24;5.28;;;2.50;;
61756;SDS011;57225;61.460;24.060;2023-12-04T09:22:09;7.55;;;3.28;;
61756;SDS011;57225;61.460;24.060;2023-12-04T09:24:53;4.13;;;2.25;;
61756;SDS011;57225;61.460;24.060;2023-12-04T09:27:38;6.00;;;2.25;;
61756;SDS011;57225;61.460;24.060;2023-12-04T09:30:23;4.95;;;2.30;;
61756;SDS011;57225;61.460;24.060;2023-12-04T09:33:08;5.85;;;2.83;;
61756;SDS011;57225;61.460;24.060;2023-12-04T09:35:52;9.60;;;3.50;;
61756;SDS011;57225;61.460;24.060;2023-12-04T09:38:36;9.43;;;4.05;;
61756;SDS011;57225;61.460;24.060;2023-12-04T09:41:22;10.32;;;4.40;;
61756;SDS011;57225;61.460;24.060;2023-12-04T09:44:25;9.98;;;4.22;;
61756;SDS011;57225;61.460;24.060;2023-12-04T09:47:21;8.15;;;3.47;;
61756;SDS011;57225;61.460;24.060;2023-12-04T09:50:06;19.70;;;4.80;;
61756;SDS011;57225;61.460;24.060;2023-12-04T09:52:52;15.90;;;4.72;;
61756;SDS011;57225;61.460;24.060;2023-12-04T09:55:37;16.27;;;5.15;;
61756;SDS011;57225;61.460;24.060;2023-12-04T09:58:21;25.92;;;5.65;;
61756;SDS011;57225;61.460;24.060;2023-12-04T10:01:11;25.60;;;5.32;;
61756;SDS011;57225;61.460;24.060;2023-12-04T10:03:56;23.35;;;5.68;;
61756;SDS011;57225;61.460;24.060;2023-12-04T10:06:42;22.67;;;5.82;;
61756;SDS011;57225;61.460;24.060;2023-12-04T10:09:29;25.75;;;7.20;;
61756;SDS011;57225;61.460;24.060;2023-12-04T10:12:14;18.65;;;5.80;;
61756;SDS011;57225;61.460;24.060;2023-12-04T10:15:09;26.38;;;6.60;;
61756;SDS011;57225;61.460;24.060;2023-12-04T10:17:55;16.00;;;5.65;;
61756;SDS011;57225;61.460;24.060;2023-12-04T10:20:50;15.75;;;5.75;;
61756;SDS011;57225;61.460;24.060;2023-12-04T10:23:38;17.63;;;5.80;;
61756;SDS011;57225;61.460;24.060;2023-12-04T10:26:24;15.68;;;5.25;;
61756;SDS011;57225;61.460;24.060;2023-12-04T10:29:08;16.38;;;5.15;;
61756;SDS011;57225;61.460;24.060;2023-12-04T10:31:53;17.42;;;5.15;;
61756;SDS011;57225;61.460;24.060;2023-12-04T10:34:42;15.82;;;5.05;;
61756;SDS011;57225;61.460;24.060;2023-12-04T10:37:28;17.42;;;4.97;;
61756;SDS011;57225;61.460;24.060;2023-12-04T10:40:22;12.10;;;4.80;;
61756;SDS011;57225;61.460;24.060;2023-12-04T10:43:22;12.90;;;4.13;;
61756;SDS011;57225;61.460;24.060;2023-12-04T10:46:08;8.52;;;4.25;;
61756;SDS011;57225;61.460;24.060;2023-12-04T10:48:53;9.43;;;3.08;;
61756;SDS011;57225;61.460;24.060;2023-12-04T10:51:37;6.30;;;2.78;;
61756;SDS011;57225;61.460;24.060;2023-12-04T10:54:22;9.48;;;2.63;;
61756;SDS011;57225;61.460;24.060;2023-12-04T10:57:07;8.82;;;2.63;;
61756;SDS011;57225;61.460;24.060;2023-12-04T11:00:01;8.00;;;2.80;;
61756;SDS011;57225;61.460;24.060;2023-12-04T11:02:48;9.02;;;3.00;;
61756;SDS011;57225;61.460;24.060;2023-12-04T11:05:37;8.07;;;3.03;;
61756;SDS011;57225;61.460;24.060;2023-12-04T11:08:23;13.30;;;4.18;;
61756;SDS011;57225;61.460;24.060;2023-12-04T11:11:15;24.33;;;5.47;;
61756;SDS011;57225;61.460;24.060;2023-12-04T11:14:10;24.17;;;5.50;;
61756;SDS011;57225;61.460;24.060;2023-12-04T11:17:04;26.08;;;6.45;;
61756;SDS011;57225;61.460;24.060;2023-12-04T11:20:11;23.13;;;6.57;;
61756;SDS011;57225;61.460;24.060;2023-12-04T11:25:45;14.23;;;4.20;;
61756;SDS011;57225;61.460;24.060;2023-12-04T11:28:31;5.30;;;2.83;;
61756;SDS011;57225;61.460;24.060;2023-12-04T11:31:17;6.15;;;2.50;;
61756;SDS011;57225;61.460;24.060;2023-12-04T11:34:02;7.90;;;2.58;;
61756;SDS011;57225;61.460;24.060;2023-12-04T11:36:47;10.25;;;2.88;;
61756;SDS011;57225;61.460;24.060;2023-12-04T11:39:33;10.00;;;2.15;;
61756;SDS011;57225;61.460;24.060;2023-12-04T11:42:24;5.25;;;2.35;;
61756;SDS011;57225;61.460;24.060;2023-12-04T11:45:09;6.60;;;2.53;;
61756;SDS011;57225;61.460;24.060;2023-12-04T11:47:55;6.03;;;2.65;;
61756;SDS011;57225;61.460;24.060;2023-12-04T11:50:44;22.90;;;5.40;;
61756;SDS011;57225;61.460;24.060;2023-12-04T11:53:29;16.67;;;6.50;;
61756;SDS011;57225;61.460;24.060;2023-12-04T11:56:13;16.17;;;4.85;;
61756;SDS011;57225;61.460;24.060;2023-12-04T11:59:05;8.70;;;3.15;;
61756;SDS011;57225;61.460;24.060;2023-12-04T12:01:51;6.10;;;2.60;;
61756;SDS011;57225;61.460;24.060;2023-12-04T12:04:38;6.60;;;2.83;;
61756;SDS011;57225;61.460;24.060;2023-12-04T12:07:23;7.80;;;2.80;;
61756;SDS011;57225;61.460;24.060;2023-12-04T12:10:08;6.15;;;2.70;;
61756;SDS011;57225;61.460;24.060;2023-12-04T12:12:53;7.45;;;2.80;;
61756;SDS011;57225;61.460;24.060;2023-12-04T12:15:38;6.13;;;2.50;;
61756;SDS011;57225;61.460;24.060;2023-12-04T12:18:23;6.40;;;2.40;;
61756;SDS011;57225;61.460;24.060;2023-12-04T12:21:07;6.57;;;2.80;;
61756;SDS011;57225;61.460;24.060;2023-12-04T12:23:52;5.40;;;2.80;;
61756;SDS011;57225;61.460;24.060;2023-12-04T12:26:36;5.97;;;2.90;;
61756;SDS011;57225;61.460;24.060;2023-12-04T12:29:21;8.82;;;3.42;;
61756;SDS011;57225;61.460;24.060;2023-12-04T12:32:05;8.23;;;3.05;;
61756;SDS011;57225;61.460;24.060;2023-12-04T12:34:49;6.15;;;2.78;;
61756;SDS011;57225;61.460;24.060;2023-12-04T12:37:34;9.27;;;3.47;;
61756;SDS011;57225;61.460;24.060;2023-12-04T12:40:20;11.50;;;3.58;;
61756;SDS011;57225;61.460;24.060;2023-12-04T12:43:08;5.53;;;2.75;;
61756;SDS011;57225;61.460;24.060;2023-12-04T12:45:53;8.23;;;3.40;;
61756;SDS011;57225;61.460;24.060;2023-12-04T12:48:37;13.52;;;4.20;;
61756;SDS011;57225;61.460;24.060;2023-12-04T12:51:23;7.40;;;3.13;;
61756;SDS011;57225;61.460;24.060;2023-12-04T12:54:07;10.13;;;3.13;;
61756;SDS011;57225;61.460;24.060;2023-12-04T12:56:52;9.82;;;3.75;;
61756;SDS011;57225;61.460;24.060;2023-12-04T12:59:40;8.80;;;4.20;;
61756;SDS011;57225;61.460;24.060;2023-12-04T13:02:25;11.05;;;4.30;;
61756;SDS011;57225;61.460;24.060;2023-12-04T13:05:09;9.93;;;4.20;;
61756;SDS011;57225;61.460;24.060;2023-12-04T13:07:55;10.48;;;4.57;;
61756;SDS011;57225;61.460;24.060;2023-12-04T13:10:41;15.40;;;3.92;;
61756;SDS011;57225;61.460;24.060;2023-12-04T13:13:25;10.25;;;4.18;;
61756;SDS011;57225;61.460;24.060;2023-12-04T13:16:10;11.45;;;4.63;;
61756;SDS011;57225;61.460;24.060;2023-12-04T13:18:55;12.85;;;4.68;;
61756;SDS011;57225;61.460;24.060;2023-12-04T13:21:39;10.90;;;4.72;;
61756;SDS011;57225;61.460;24.060;2023-12-04T13:24:24;14.55;;;5.68;;
61756;SDS011;57225;61.460;24.060;2023-12-04T13:27:09;14.63;;;6.50;;
61756;SDS011;57225;61.460;24.060;2023-12-04T13:29:53;21.88;;;7.18;;
61756;SDS011;57225;61.460;24.060;2023-12-04T13:32:38;19.92;;;7.35;;
61756;SDS011;57225;61.460;24.060;2023-12-04T13:35:22;17.70;;;6.25;;
61756;SDS011;57225;61.460;24.060;2023-12-04T13:38:07;15.02;;;5.47;;
61756;SDS011;57225;61.460;24.060;2023-12-04T13:40:58;18.83;;;6.60;;
61756;SDS011;57225;61.460;24.060;2023-12-04T13:43:43;29.50;;;7.63;;
61756;SDS011;57225;61.460;24.060;2023-12-04T13:46:34;26.70;;;9.65;;
61756;SDS011;57225;61.460;24.060;2023-12-04T13:49:18;30.27;;;7.90;;
61756;SDS011;57225;61.460;24.060;2023-12-04T13:52:03;34.40;;;11.00;;
61756;SDS011;57225;61.460;24.060;2023-12-04T13:54:51;43.00;;;12.70;;
61756;SDS011;57225;61.460;24.060;2023-12-04T13:57:38;53.67;;;14.93;;
61756;SDS011;57225;61.460;24.060;2023-12-04T14:00:38;47.83;;;14.32;;
61756;SDS011;57225;61.460;24.060;2023-12-04T14:03:25;50.60;;;14.88;;
61756;SDS011;57225;61.460;24.060;2023-12-04T14:06:10;51.92;;;14.00;;
61756;SDS011;57225;61.460;24.060;2023-12-04T14:08:55;40.95;;;12.40;;
61756;SDS011;57225;61.460;24.060;2023-12-04T14:11:44;41.08;;;11.02;;
61756;SDS011;57225;61.460;24.060;2023-12-04T14:14:28;23.00;;;7.00;;
61756;SDS011;57225;61.460;24.060;2023-12-04T14:17:13;28.00;;;8.27;;
61756;SDS011;57225;61.460;24.060;2023-12-04T14:19:57;25.27;;;7.32;;
61756;SDS011;57225;61.460;24.060;2023-12-04T14:22:48;25.45;;;6.97;;
61756;SDS011;57225;61.460;24.060;2023-12-04T14:25:32;22.38;;;6.22;;
61756;SDS011;57225;61.460;24.060;2023-12-04T14:28:17;20.52;;;6.63;;
61756;SDS011;57225;61.460;24.060;2023-12-04T14:31:02;19.63;;;6.07;;
61756;SDS011;57225;61.460;24.060;2023-12-04T14:33:48;19.42;;;5.50;;
61756;SDS011;57225;61.460;24.060;2023-12-04T14:36:33;12.73;;;4.50;;
61756;SDS011;57225;61.460;24.060;2023-12-04T14:39:17;10.45;;;3.55;;
61756;SDS011;57225;61.460;24.060;2023-12-04T14:42:02;12.05;;;3.80;;
61756;SDS011;57225;61.460;24.060;2023-12-04T14:44:46;11.35;;;3.80;;
61756;SDS011;57225;61.460;24.060;2023-12-04T14:47:31;7.65;;;3.60;;
61756;SDS011;57225;61.460;24.060;2023-12-04T14:50:15;9.82;;;3.17;;
61756;SDS011;57225;61.460;24.060;2023-12-04T14:53:01;9.70;;;3.40;;
61756;SDS011;57225;61.460;24.060;2023-12-04T14:55:59;10.25;;;3.67;;
61756;SDS011;57225;61.460;24.060;2023-12-04T14:59:02;10.85;;;3.95;;
61756;SDS011;57225;61.460;24.060;2023-12-04T15:01:49;11.52;;;4.20;;
61756;SDS011;57225;61.460;24.060;2023-12-04T15:04:52;12.73;;;4.32;;
61756;SDS011;57225;61.460;24.060;2023-12-04T15:07:36;11.88;;;4.50;;
61756;SDS011;57225;61.460;24.060;2023-12-04T15:10:23;8.63;;;3.75;;
61756;SDS011;57225;61.460;24.060;2023-12-04T15:13:31;7.20;;;2.57;;
61756;SDS011;57225;61.460;24.060;2023-12-04T15:16:34;12.40;;;3.58;;
61756;SDS011;57225;61.460;24.060;2023-12-04T15:19:39;8.00;;;3.60;;
61756;SDS011;57225;61.460;24.060;2023-12-04T15:22:50;10.85;;;3.55;;
61756;SDS011;57225;61.460;24.060;2023-12-04T15:25:34;8.85;;;3.72;;
61756;SDS011;57225;61.460;24.060;2023-12-04T15:28:18;13.38;;;4.07;;
61756;SDS011;57225;61.460;24.060;2023-12-04T15:31:03;10.95;;;3.90;;
61756;SDS011;57225;61.460;24.060;2023-12-04T15:33:48;8.50;;;3.78;;
61756;SDS011;57225;61.460;24.060;2023-12-04T15:36:33;11.57;;;3.65;;
61756;SDS011;57225;61.460;24.060;2023-12-04T15:39:17;11.35;;;3.72;;
61756;SDS011;57225;61.460;24.060;2023-12-04T15:42:03;12.23;;;4.13;;
61756;SDS011;57225;61.460;24.060;2023-12-04T15:44:50;18.15;;;3.90;;
61756;SDS011;57225;61.460;24.060;2023-12-04T15:47:35;8.18;;;3.90;;
61756;SDS011;57225;61.460;24.060;2023-12-04T15:50:19;13.70;;;4.00;;
61756;SDS011;57225;61.460;24.060;2023-12-04T15:53:06;9.23;;;3.38;;
61756;SDS011;57225;61.460;24.060;2023-12-04T15:55:51;7.38;;;3.28;;
61756;SDS011;57225;61.460;24.060;2023-12-04T15:58:35;8.65;;;3.08;;
61756;SDS011;57225;61.460;24.060;2023-12-04T16:01:20;6.18;;;3.10;;
61756;SDS011;57225;61.460;24.060;2023-12-04T16:04:04;9.38;;;3.10;;
61756;SDS011;57225;61.460;24.060;2023-12-04T16:06:49;6.85;;;2.95;;
61756;SDS011;57225;61.460;24.060;2023-12-04T16:09:33;9.40;;;3.45;;
61756;SDS011;57225;61.460;24.060;2023-12-04T16:12:18;9.73;;;3.28;;
61756;SDS011;57225;61.460;24.060;2023-12-04T16:15:07;10.27;;;3.33;;
61756;SDS011;57225;61.460;24.060;2023-12-04T16:17:52;8.75;;;3.50;;
61756;SDS011;57225;61.460;24.060;2023-12-04T16:20:36;8.73;;;3.40;;
61756;SDS011;57225;61.460;24.060;2023-12-04T16:23:21;12.65;;;4.63;;